createdAt,value
2018-10-16T00:01:25.052Z,44.09
2018-10-16T00:03:53.656Z,44.30
2018-10-16T00:06:21.828Z,44.66
2018-10-16T00:08:49.940Z,45.36
2018-10-16T00:11:18.082Z,46.02
2018-10-16T00:13:46.186Z,46.14
2018-10-16T00:16:14.308Z,45.70
2018-10-16T00:18:42.438Z,46.17
2018-10-16T00:21:10.587Z,46.48
2018-10-16T00:23:38.753Z,46.69
2018-10-16T00:26:06.980Z,46.88
2018-10-16T00:28:35.288Z,46.55
2018-10-16T00:31:03.423Z,46.75
2018-10-16T00:33:31.667Z,46.41
2018-10-16T00:35:59.821Z,46.61
2018-10-16T00:38:27.971Z,47.18
2018-10-16T00:40:56.099Z,47.39
2018-10-16T00:43:24.235Z,46.76
2018-10-16T00:45:52.397Z,47.52
2018-10-16T00:48:20.527Z,46.75
2018-10-16T00:50:48.655Z,47.15
2018-10-16T00:53:16.767Z,46.80
2018-10-16T00:55:44.905Z,46.48
2018-10-16T00:58:13.019Z,46.64
2018-10-16T01:00:41.161Z,46.59
2018-10-16T01:03:09.528Z,47.13
2018-10-16T01:05:37.849Z,46.99
2018-10-16T01:08:06.273Z,46.61
2018-10-16T01:10:34.435Z,46.41
2018-10-16T01:13:03.045Z,47.15
2018-10-16T01:15:31.177Z,46.94
2018-10-16T01:18:00.349Z,47.70
2018-10-16T01:20:29.582Z,47.45
2018-10-16T01:22:58.168Z,48.05
2018-10-16T01:25:26.422Z,47.31
2018-10-16T01:27:54.618Z,47.90
2018-10-16T01:30:22.759Z,47.86
2018-10-16T01:32:50.889Z,47.95
2018-10-16T01:35:19.079Z,47.97
2018-10-16T01:37:47.248Z,47.76
2018-10-16T01:40:15.550Z,48.01
2018-10-16T01:42:43.690Z,47.74
2018-10-16T01:45:11.863Z,48.42
2018-10-16T01:47:40.022Z,48.45
2018-10-16T01:50:08.605Z,48.07
2018-10-16T01:52:36.774Z,48.82
2018-10-16T01:55:05.192Z,49.02
2018-10-16T01:57:33.333Z,48.43
2018-10-16T02:00:01.503Z,48.76
2018-10-16T02:02:29.697Z,48.67
2018-10-16T02:04:58.017Z,49.22
2018-10-16T02:07:26.226Z,49.10
2018-10-16T02:09:54.378Z,49.23
2018-10-16T02:12:22.543Z,48.98
2018-10-16T02:14:50.696Z,49.18
2018-10-16T02:17:18.812Z,49.13
2018-10-16T02:19:47.009Z,49.63
2018-10-16T02:22:15.151Z,49.87
2018-10-16T02:24:43.418Z,49.65
2018-10-16T02:27:11.580Z,50.38
2018-10-16T02:29:39.705Z,50.40
2018-10-16T02:32:14.527Z,50.64
2018-10-16T02:34:42.609Z,50.92
2018-10-16T02:37:10.757Z,50.53
2018-10-16T02:39:39.385Z,50.15
2018-10-16T02:42:07.902Z,50.47
2018-10-16T02:44:36.039Z,51.00
2018-10-16T02:47:04.281Z,50.72
2018-10-16T02:49:32.581Z,50.82
2018-10-16T02:52:00.918Z,50.61
2018-10-16T02:54:29.023Z,50.25
2018-10-16T02:56:57.321Z,51.14
2018-10-16T02:59:25.651Z,51.85
2018-10-16T03:01:53.947Z,51.86
2018-10-16T03:04:23.101Z,51.20
2018-10-16T03:06:51.259Z,50.63
2018-10-16T03:09:19.406Z,51.27
2018-10-16T03:11:47.614Z,51.45
2018-10-16T03:14:15.800Z,51.32
2018-10-16T03:16:44.395Z,51.54
2018-10-16T03:19:12.552Z,51.15
2018-10-16T03:21:40.931Z,51.88
2018-10-16T03:24:09.365Z,52.13
2018-10-16T03:26:37.997Z,51.15
2018-10-16T03:29:06.765Z,51.56
2018-10-16T03:31:35.132Z,51.53
2018-10-16T03:34:03.393Z,51.37
2018-10-16T03:36:31.667Z,51.38
2018-10-16T03:38:59.815Z,51.81
2018-10-16T03:41:28.125Z,52.11
2018-10-16T03:43:59.481Z,51.33
2018-10-16T03:46:28.163Z,51.62
2018-10-16T03:48:56.474Z,52.22
2018-10-16T03:51:25.071Z,51.82
2018-10-16T03:53:55.261Z,52.25
2018-10-16T03:56:23.768Z,51.94
2018-10-16T03:58:51.998Z,51.95
2018-10-16T04:01:20.598Z,52.06
2018-10-16T04:03:49.132Z,52.15
2018-10-16T04:06:17.260Z,52.86
2018-10-16T04:08:45.418Z,53.21
2018-10-16T04:11:13.586Z,52.72
2018-10-16T04:13:41.769Z,53.19
2018-10-16T04:16:09.977Z,52.62
2018-10-16T04:18:38.280Z,53.23
2018-10-16T04:21:06.911Z,53.38
2018-10-16T04:23:35.035Z,52.95
2018-10-16T04:26:03.394Z,53.11
2018-10-16T04:28:31.881Z,52.82
2018-10-16T04:31:00.020Z,52.91
2018-10-16T04:33:28.204Z,53.73
2018-10-16T04:35:56.352Z,53.88
2018-10-16T04:38:24.662Z,53.13
2018-10-16T04:40:53.010Z,53.33
2018-10-16T04:43:21.138Z,53.16
2018-10-16T04:45:49.969Z,53.58
2018-10-16T04:48:18.243Z,52.95
2018-10-16T04:50:46.436Z,53.08
2018-10-16T04:53:14.750Z,53.51
2018-10-16T04:55:42.926Z,53.61
2018-10-16T04:58:11.232Z,53.11
2018-10-16T05:00:39.473Z,53.06
2018-10-16T05:03:07.803Z,53.35
2018-10-16T05:05:35.986Z,53.35
2018-10-16T05:08:04.552Z,53.43
2018-10-16T05:10:32.676Z,53.42
2018-10-16T05:13:00.781Z,53.88
2018-10-16T05:15:30.159Z,53.68
2018-10-16T05:17:58.369Z,53.51
2018-10-16T05:20:26.577Z,53.34
2018-10-16T05:22:55.644Z,54.37
2018-10-16T05:25:24.639Z,53.99
2018-10-16T05:27:52.855Z,54.42
2018-10-16T05:30:20.981Z,54.48
2018-10-16T05:32:49.171Z,54.19
2018-10-16T05:35:17.279Z,54.16
2018-10-16T05:37:45.573Z,53.95
2018-10-16T05:40:13.716Z,54.39
2018-10-16T05:42:41.774Z,54.78
2018-10-16T05:45:11.447Z,55.03
2018-10-16T05:47:40.871Z,54.86
2018-10-16T05:50:09.509Z,54.50
2018-10-16T05:52:37.957Z,54.66
2018-10-16T05:55:06.603Z,55.00
2018-10-16T05:57:35.083Z,54.98
2018-10-16T06:00:20.521Z,54.04
2018-10-16T06:02:48.856Z,54.51
2018-10-16T06:05:17.047Z,53.86
2018-10-16T06:07:45.435Z,54.82
2018-10-16T06:10:13.740Z,54.65
2018-10-16T06:12:41.930Z,54.72
2018-10-16T06:15:10.804Z,54.73
2018-10-16T06:17:39.115Z,54.90
2018-10-16T06:20:10.801Z,54.71
2018-10-16T06:22:39.058Z,53.99
2018-10-16T06:25:08.050Z,54.30
2018-10-16T06:27:36.414Z,53.47
2018-10-16T06:30:05.028Z,52.37
2018-10-16T06:32:33.162Z,52.05
2018-10-16T06:35:01.956Z,52.33
2018-10-16T06:37:30.640Z,51.80
2018-10-16T06:39:58.896Z,51.29
2018-10-16T06:42:27.078Z,51.31
2018-10-16T06:44:55.225Z,51.08
2018-10-16T06:47:23.590Z,51.10
2018-10-16T06:49:51.701Z,50.23
2018-10-16T06:52:20.067Z,49.87
2018-10-16T06:54:48.346Z,49.69
2018-10-16T06:57:16.587Z,49.14
2018-10-16T06:59:45.005Z,50.01
2018-10-16T07:02:13.231Z,50.13
2018-10-16T07:04:41.365Z,49.62
2018-10-16T07:07:10.450Z,49.71
2018-10-16T07:09:38.732Z,50.14
2018-10-16T07:12:07.464Z,51.04
2018-10-16T07:14:35.618Z,50.60
2018-10-16T07:17:03.953Z,51.09
2018-10-16T07:19:32.147Z,51.23
2018-10-16T07:22:00.641Z,50.97
2018-10-16T07:24:28.865Z,50.82
2018-10-16T07:26:56.965Z,51.05
2018-10-16T07:29:25.270Z,50.42
2018-10-16T07:31:53.380Z,50.24
2018-10-16T07:34:21.694Z,50.12
2018-10-16T07:36:49.875Z,49.88
2018-10-16T07:39:18.185Z,49.56
2018-10-16T07:41:46.336Z,49.36
2018-10-16T07:44:14.617Z,50.10
2018-10-16T07:46:42.778Z,49.37
2018-10-16T07:49:10.976Z,49.04
2018-10-16T07:51:39.074Z,49.56
2018-10-16T07:54:07.470Z,49.59
2018-10-16T07:56:35.650Z,49.64
2018-10-16T07:59:04.349Z,49.87
2018-10-16T08:01:32.470Z,49.99
2018-10-16T08:04:00.627Z,49.75
2018-10-16T08:06:28.764Z,49.11
2018-10-16T08:08:56.852Z,49.06
2018-10-16T08:11:25.132Z,48.92
2018-10-16T08:13:53.396Z,49.56
2018-10-16T08:16:21.512Z,49.09
2018-10-16T08:18:49.591Z,49.64
2018-10-16T08:21:17.772Z,49.94
2018-10-16T08:23:45.930Z,49.13
2018-10-16T08:26:14.114Z,47.99
2018-10-16T08:28:42.218Z,47.70
2018-10-16T08:31:10.335Z,47.48
2018-10-16T08:33:38.502Z,45.92
2018-10-16T08:36:06.802Z,45.76
2018-10-16T08:39:29.160Z,45.04
2018-10-16T08:42:50.004Z,43.15
2018-10-16T08:45:35.389Z,42.12
2018-10-16T08:48:20.610Z,40.87
2018-10-16T08:51:06.028Z,41.27
2018-10-16T08:53:34.154Z,38.25
2018-10-16T08:56:02.329Z,36.91
2018-10-16T08:58:30.424Z,36.04
2018-10-16T09:00:58.629Z,34.47
2018-10-16T09:03:26.784Z,32.94
2018-10-16T09:05:54.955Z,33.09
2018-10-16T09:08:23.145Z,32.70
2018-10-16T09:10:51.267Z,31.92
2018-10-16T09:13:19.451Z,31.72
2018-10-16T09:15:48.319Z,31.69
2018-10-16T09:18:16.510Z,32.98
2018-10-16T09:20:44.657Z,31.95
2018-10-16T09:23:12.798Z,29.29
2018-10-16T09:25:40.938Z,25.42
2018-10-16T09:28:09.125Z,25.74
2018-10-16T09:30:37.298Z,27.92
2018-10-16T09:33:05.758Z,27.34
2018-10-16T09:35:34.020Z,27.86
2018-10-16T09:38:02.202Z,28.79
2018-10-16T09:40:30.357Z,30.22
2018-10-16T09:42:58.490Z,30.08
2018-10-16T09:45:26.700Z,30.75
2018-10-16T09:47:54.900Z,31.16
2018-10-16T09:50:23.042Z,31.76
2018-10-16T09:52:51.195Z,31.26
2018-10-16T09:55:19.352Z,32.17
2018-10-16T09:57:47.525Z,32.90
2018-10-16T10:00:21.426Z,32.49
2018-10-16T10:02:49.614Z,31.83
2018-10-16T10:05:17.739Z,32.12
2018-10-16T10:07:45.998Z,30.20
2018-10-16T10:10:14.167Z,30.16
2018-10-16T10:12:49.043Z,25.13
2018-10-16T10:15:17.153Z,22.74
2018-10-16T10:17:45.295Z,22.20
2018-10-16T10:20:13.490Z,20.87
2018-10-16T10:22:41.675Z,19.97
2018-10-16T10:25:09.960Z,20.66
2018-10-16T10:27:38.145Z,20.55
2018-10-16T10:30:10.124Z,22.17
2018-10-16T10:32:38.308Z,23.02
2018-10-16T10:35:08.614Z,22.58
2018-10-16T10:37:36.791Z,21.38
2018-10-16T10:40:05.405Z,20.30
2018-10-16T10:42:33.607Z,20.32
2018-10-16T10:45:02.013Z,19.84
2018-10-16T10:47:30.293Z,20.58
2018-10-16T10:49:58.535Z,21.77
2018-10-16T10:52:26.642Z,22.41
2018-10-16T10:54:54.768Z,23.83
2018-10-16T10:57:22.875Z,25.10
2018-10-16T10:59:51.042Z,26.39
2018-10-16T11:02:19.161Z,27.77
2018-10-16T11:04:47.344Z,31.31
2018-10-16T11:07:15.476Z,32.11
2018-10-16T11:09:43.623Z,31.71
2018-10-16T11:12:11.743Z,31.87
2018-10-16T11:14:46.703Z,32.87
2018-10-16T11:17:14.857Z,33.04
2018-10-16T11:19:43.027Z,33.00
2018-10-16T11:22:12.051Z,32.44
2018-10-16T11:24:40.185Z,31.86
2018-10-16T11:27:08.399Z,30.64
2018-10-16T11:29:36.525Z,28.84
2018-10-16T11:32:04.789Z,29.14
2018-10-16T11:34:32.985Z,28.76
2018-10-16T11:37:01.223Z,29.22
2018-10-16T11:39:29.340Z,29.97
2018-10-16T11:41:57.765Z,30.36
2018-10-16T11:44:25.943Z,31.60
2018-10-16T11:46:54.111Z,32.55
2018-10-16T11:49:22.280Z,32.96
2018-10-16T11:51:50.472Z,32.96
2018-10-16T11:54:18.644Z,33.94
2018-10-16T11:56:46.791Z,33.23
2018-10-16T11:59:14.964Z,33.07
2018-10-16T12:01:43.151Z,33.10
2018-10-16T12:04:11.249Z,32.89
2018-10-16T12:06:39.399Z,33.31
2018-10-16T12:09:09.110Z,33.84
2018-10-16T12:11:38.097Z,33.44
2018-10-16T12:14:06.995Z,34.44
2018-10-16T12:16:39.706Z,34.11
2018-10-16T12:19:13.246Z,33.36
2018-10-16T12:21:41.388Z,33.74
2018-10-16T12:24:09.596Z,34.59
2018-10-16T12:26:37.718Z,34.71
2018-10-16T12:29:05.949Z,35.90
2018-10-16T12:31:34.104Z,34.79
2018-10-16T12:34:02.285Z,33.48
2018-10-16T12:36:30.516Z,31.32
2018-10-16T12:38:58.720Z,28.69
2018-10-16T12:41:26.917Z,28.32
2018-10-16T12:43:55.178Z,28.56
2018-10-16T12:46:23.322Z,30.94
2018-10-16T12:48:51.500Z,32.50
2018-10-16T12:51:19.757Z,34.33
2018-10-16T12:53:47.913Z,35.12
2018-10-16T12:56:16.168Z,36.07
2018-10-16T12:58:44.217Z,36.52
2018-10-16T13:01:12.371Z,36.54
2018-10-16T13:03:40.641Z,37.25
2018-10-16T13:06:08.750Z,38.63
2018-10-16T13:08:36.960Z,39.49
2018-10-16T13:11:05.377Z,39.29
2018-10-16T13:13:33.392Z,39.78
2018-10-16T13:16:01.521Z,40.34
2018-10-16T13:18:29.584Z,41.18
2018-10-16T13:20:57.747Z,41.58
2018-10-16T13:23:25.980Z,41.10
2018-10-16T13:25:54.151Z,42.69
2018-10-16T13:28:22.308Z,42.14
2018-10-16T13:30:50.474Z,41.91
2018-10-16T13:33:18.704Z,42.08
2018-10-16T13:35:46.855Z,42.48
2018-10-16T13:38:15.759Z,42.08
2018-10-16T13:40:43.910Z,42.38
2018-10-16T13:43:12.072Z,43.56
2018-10-16T13:45:40.233Z,44.76
2018-10-16T13:48:08.399Z,44.16
2018-10-16T13:50:36.465Z,45.29
2018-10-16T13:53:04.991Z,45.76
2018-10-16T13:55:33.103Z,45.95
2018-10-16T13:58:01.288Z,48.46
2018-10-16T14:00:29.440Z,49.34
2018-10-16T14:02:57.593Z,48.73
2018-10-16T14:05:25.816Z,49.99
2018-10-16T14:07:53.991Z,50.76
2018-10-16T14:10:22.210Z,47.98
2018-10-16T14:12:50.409Z,48.62
2018-10-16T14:15:18.614Z,48.43
2018-10-16T14:17:46.782Z,50.27
2018-10-16T14:20:15.042Z,47.67
2018-10-16T14:22:43.543Z,48.96
2018-10-16T14:25:13.060Z,48.14
2018-10-16T14:27:41.590Z,48.40
2018-10-16T14:30:11.593Z,48.11
2018-10-16T14:32:40.127Z,48.38
2018-10-16T14:35:09.254Z,48.93
2018-10-16T14:37:38.015Z,48.90
2018-10-16T14:40:08.128Z,49.86
2018-10-16T14:42:36.262Z,50.04
2018-10-16T14:45:05.339Z,49.38
2018-10-16T14:47:33.554Z,49.63
2018-10-16T14:50:01.822Z,49.54
2018-10-16T14:52:29.918Z,50.24
2018-10-16T14:54:58.145Z,49.62
2018-10-16T14:57:26.362Z,50.41
2018-10-16T14:59:55.180Z,50.50
2018-10-16T15:02:23.305Z,50.28
2018-10-16T15:04:51.610Z,50.32
2018-10-16T15:07:19.845Z,50.20
2018-10-16T15:09:48.006Z,50.67
2018-10-16T15:12:16.138Z,50.57
2018-10-16T15:14:44.306Z,49.98
2018-10-16T15:17:12.501Z,49.67
2018-10-16T15:19:40.695Z,49.15
2018-10-16T15:22:08.889Z,49.76
2018-10-16T15:24:37.068Z,49.41
2018-10-16T15:27:05.279Z,49.88
2018-10-16T15:29:40.138Z,49.97
2018-10-16T15:32:08.575Z,50.01
2018-10-16T15:34:36.653Z,50.15
2018-10-16T15:37:05.577Z,49.46
2018-10-16T15:39:33.741Z,49.44
2018-10-16T15:42:02.148Z,50.04
2018-10-16T15:44:30.314Z,51.08
2018-10-16T15:46:58.567Z,50.84
2018-10-16T15:49:26.765Z,51.09
2018-10-16T15:51:54.911Z,51.39
2018-10-16T15:54:23.380Z,51.79
2018-10-16T15:56:52.609Z,52.97
2018-10-16T15:59:20.841Z,52.92
2018-10-16T16:01:49.214Z,54.66
2018-10-16T16:04:17.440Z,55.61
2018-10-16T16:06:45.790Z,55.64
2018-10-16T16:09:14.186Z,55.16
2018-10-16T16:11:42.528Z,55.37
2018-10-16T16:14:10.754Z,55.47
2018-10-16T16:16:38.867Z,55.75
2018-10-16T16:19:07.224Z,56.00
2018-10-16T16:21:35.596Z,56.10
2018-10-16T16:24:03.950Z,56.12
2018-10-16T16:26:32.102Z,56.19
2018-10-16T16:29:00.259Z,56.29
2018-10-16T16:31:28.419Z,56.09
2018-10-16T16:33:56.642Z,56.68
2018-10-16T16:36:24.769Z,57.62
2018-10-16T16:38:53.161Z,57.62
2018-10-16T16:41:21.335Z,58.53
2018-10-16T16:43:49.518Z,58.42
2018-10-16T16:46:17.621Z,59.35
2018-10-16T16:48:45.969Z,59.32
2018-10-16T16:51:14.335Z,59.94
2018-10-16T16:53:42.432Z,60.01
2018-10-16T16:56:10.670Z,60.17
2018-10-16T16:58:38.818Z,61.14
2018-10-16T17:01:06.976Z,60.62
2018-10-16T17:03:35.159Z,61.27
2018-10-16T17:06:03.426Z,61.69
2018-10-16T17:08:31.605Z,61.19
2018-10-16T17:10:59.772Z,61.72
2018-10-16T17:13:27.945Z,61.98
2018-10-16T17:15:56.954Z,61.03
2018-10-16T17:18:25.090Z,62.16
2018-10-16T17:20:53.184Z,61.45
2018-10-16T17:23:21.368Z,62.42
2018-10-16T17:25:49.911Z,61.83
2018-10-16T17:28:17.801Z,62.18
2018-10-16T17:30:45.946Z,62.53
2018-10-16T17:33:14.266Z,63.18
2018-10-16T17:35:42.332Z,63.51
2018-10-16T17:38:10.543Z,64.20
2018-10-16T17:40:39.194Z,64.72
2018-10-16T17:43:07.329Z,64.92
2018-10-16T17:45:35.449Z,65.17
2018-10-16T17:48:03.837Z,65.54
2018-10-16T17:50:32.109Z,65.60
2018-10-16T17:53:00.304Z,65.92
2018-10-16T17:55:28.491Z,65.32
2018-10-16T17:58:03.058Z,66.05
2018-10-16T18:00:31.300Z,65.72
2018-10-16T18:02:59.456Z,66.90
2018-10-16T18:05:27.617Z,66.24
2018-10-16T18:07:55.793Z,67.30
2018-10-16T18:10:23.985Z,66.83
2018-10-16T18:12:52.164Z,67.24
2018-10-16T18:15:20.951Z,68.10
2018-10-16T18:17:49.137Z,68.39
2018-10-16T18:20:17.323Z,68.70
2018-10-16T18:22:45.773Z,68.40
2018-10-16T18:25:13.905Z,68.73
2018-10-16T18:27:43.028Z,68.92
2018-10-16T18:30:11.449Z,69.67
2018-10-16T18:32:39.866Z,70.24
2018-10-16T18:35:08.457Z,69.88
2018-10-16T18:37:36.675Z,69.89
2018-10-16T18:40:07.004Z,70.78
2018-10-16T18:42:35.152Z,70.97
2018-10-16T18:45:04.299Z,70.86
2018-10-16T18:47:32.484Z,71.54
2018-10-16T18:50:00.677Z,72.23
2018-10-16T18:52:29.547Z,71.91
2018-10-16T18:54:57.761Z,72.45
2018-10-16T18:57:25.949Z,72.19
2018-10-16T18:59:54.802Z,72.95
2018-10-16T19:02:23.241Z,73.00
2018-10-16T19:04:51.454Z,73.05
2018-10-16T19:07:19.649Z,73.29
2018-10-16T19:09:47.902Z,73.32
2018-10-16T19:12:16.122Z,73.79
2018-10-16T19:14:44.426Z,74.08
2018-10-16T19:17:12.634Z,74.22
2018-10-16T19:19:40.922Z,73.96
2018-10-16T19:22:09.152Z,74.62
2018-10-16T19:24:37.674Z,74.89
2018-10-16T19:27:06.339Z,74.58
2018-10-16T19:29:35.234Z,75.64
2018-10-16T19:32:03.671Z,75.24
2018-10-16T19:34:31.890Z,75.70
2018-10-16T19:37:00.627Z,75.53
2018-10-16T19:39:28.974Z,75.07
2018-10-16T19:41:57.224Z,75.94
2018-10-16T19:44:25.596Z,76.36
2018-10-16T19:46:53.922Z,76.35
2018-10-16T19:49:22.096Z,76.16
2018-10-16T19:51:50.288Z,76.56
2018-10-16T19:54:18.637Z,76.70
2018-10-16T19:56:46.867Z,76.71
2018-10-16T19:59:15.037Z,76.54
2018-10-16T20:01:43.299Z,76.15
2018-10-16T20:04:12.027Z,75.76
2018-10-16T20:06:40.180Z,76.15
2018-10-16T20:09:10.208Z,75.98
2018-10-16T20:11:38.442Z,76.38
2018-10-16T20:14:07.405Z,77.56
2018-10-16T20:16:35.561Z,77.11
2018-10-16T20:19:03.919Z,77.01
2018-10-16T20:21:33.113Z,77.24
2018-10-16T20:24:01.342Z,77.55
2018-10-16T20:26:29.614Z,77.14
2018-10-16T20:28:57.860Z,77.54
2018-10-16T20:31:26.027Z,77.39
2018-10-16T20:33:54.246Z,76.97
2018-10-16T20:36:22.437Z,77.52
2018-10-16T20:38:51.186Z,77.39
2018-10-16T20:41:19.450Z,78.29
2018-10-16T20:43:47.671Z,77.79
2018-10-16T20:46:15.916Z,78.47
2018-10-16T20:48:44.220Z,77.68
2018-10-16T20:51:12.415Z,77.92
2018-10-16T20:53:40.558Z,77.60
2018-10-16T20:56:09.429Z,78.06
2018-10-16T20:58:37.570Z,77.93
2018-10-16T21:01:07.021Z,77.40
2018-10-16T21:03:35.218Z,78.25
2018-10-16T21:06:05.279Z,79.00
2018-10-16T21:08:33.475Z,79.41
2018-10-16T21:11:01.616Z,79.68
2018-10-16T21:13:29.812Z,78.62
2018-10-16T21:15:59.248Z,79.24
2018-10-16T21:18:28.339Z,79.10
2018-10-16T21:20:57.073Z,79.39
2018-10-16T21:23:25.202Z,79.28
2018-10-16T21:25:53.804Z,79.61
2018-10-16T21:28:22.026Z,79.83
2018-10-16T21:30:50.192Z,79.46
2018-10-16T21:33:18.326Z,79.70
2018-10-16T21:35:46.469Z,79.33
2018-10-16T21:38:15.294Z,79.45
2018-10-16T21:40:43.458Z,78.87
2018-10-16T21:43:11.780Z,78.55
2018-10-16T21:45:39.895Z,78.84
2018-10-16T21:48:08.300Z,78.85
2018-10-16T21:50:36.452Z,78.95
2018-10-16T21:53:04.688Z,79.47
2018-10-16T21:55:32.800Z,79.44
2018-10-16T21:58:01.201Z,79.89
2018-10-16T22:00:37.924Z,80.31
2018-10-16T22:03:06.272Z,79.80
2018-10-16T22:05:34.554Z,80.29
2018-10-16T22:08:02.782Z,79.76
2018-10-16T22:10:31.458Z,79.67
2018-10-16T22:12:59.612Z,79.80
2018-10-16T22:15:27.797Z,80.14
2018-10-16T22:17:55.961Z,80.21
2018-10-16T22:20:24.102Z,80.95
2018-10-16T22:22:52.356Z,79.99
2018-10-16T22:25:21.054Z,80.96
2018-10-16T22:27:49.215Z,80.78
2018-10-16T22:30:17.428Z,80.72
2018-10-16T22:32:46.175Z,80.63
2018-10-16T22:35:14.595Z,81.09
2018-10-16T22:37:43.317Z,81.14
2018-10-16T22:40:11.494Z,81.00
2018-10-16T22:42:39.653Z,81.29
2018-10-16T22:45:08.415Z,81.01
2018-10-16T22:47:36.639Z,81.29
2018-10-16T22:50:08.600Z,82.15
2018-10-16T22:52:36.711Z,82.08
2018-10-16T22:55:06.146Z,82.13
2018-10-16T22:57:34.175Z,82.66
2018-10-16T23:00:02.483Z,82.14
2018-10-16T23:02:30.620Z,81.37
2018-10-16T23:04:59.683Z,82.20
2018-10-16T23:07:27.779Z,82.35
2018-10-16T23:09:57.085Z,82.84
2018-10-16T23:12:26.187Z,82.89
2018-10-16T23:14:55.147Z,82.45
2018-10-16T23:17:23.299Z,82.08
2018-10-16T23:19:51.472Z,81.07
2018-10-16T23:22:20.294Z,80.98
2018-10-16T23:24:48.592Z,81.98
2018-10-16T23:27:16.837Z,82.35
2018-10-16T23:29:45.251Z,83.30
2018-10-16T23:32:13.370Z,83.07
2018-10-16T23:34:41.657Z,82.14
2018-10-16T23:37:09.991Z,82.44
2018-10-16T23:39:38.092Z,82.49
2018-10-16T23:42:06.459Z,81.91
2018-10-16T23:44:34.570Z,82.15
2018-10-16T23:47:02.962Z,81.26
2018-10-16T23:49:31.170Z,81.51
2018-10-16T23:51:59.462Z,81.76
2018-10-16T23:54:27.780Z,81.54
2018-10-16T23:56:56.124Z,82.59
2018-10-16T23:59:24.238Z,82.70
